sensor_id;sensor_type;location;lat;lon;timestamp;pressure;altitude;pressure_sealevel;temperature;humidity
70015;BME280;57358;51.094;6.760;2023-08-01T00:02:22;99592.44;;;16.85;100.00
70015;BME280;57358;51.094;6.760;2023-08-01T00:04:48;99519.03;;;16.40;100.00
70015;BME280;57358;51.094;6.760;2023-08-01T00:07:14;99594.41;;;16.83;100.00
70015;BME280;57358;51.094;6.760;2023-08-01T00:09:41;99583.53;;;16.86;100.00
70015;BME280;57358;51.094;6.760;2023-08-01T00:12:07;99583.00;;;16.83;100.00
70015;BME280;57358;51.094;6.760;2023-08-01T00:14:35;99565.59;;;16.70;100.00
70015;BME280;57358;51.094;6.760;2023-08-01T00:17:02;99578.38;;;16.85;100.00
70015;BME280;57358;51.094;6.760;2023-08-01T00:19:29;99520.22;;;16.83;100.00
70015;BME280;57358;51.094;6.760;2023-08-01T00:21:55;99434.41;;;16.21;100.00
70015;BME280;57358;51.094;6.760;2023-08-01T00:24:21;99302.50;;;15.33;100.00
70015;BME280;57358;51.094;6.760;2023-08-01T00:26:50;99559.16;;;16.73;100.00
70015;BME280;57358;51.094;6.760;2023-08-01T00:29:17;99570.84;;;16.80;100.00
70015;BME280;57358;51.094;6.760;2023-08-01T00:31:43;99576.28;;;16.79;100.00
70015;BME280;57358;51.094;6.760;2023-08-01T00:34:10;99546.66;;;16.65;100.00
70015;BME280;57358;51.094;6.760;2023-08-01T00:36:36;99522.06;;;16.45;100.00
70015;BME280;57358;51.094;6.760;2023-08-01T00:39:04;99559.69;;;16.77;100.00
70015;BME280;57358;51.094;6.760;2023-08-01T00:41:30;99531.84;;;16.72;100.00
70015;BME280;57358;51.094;6.760;2023-08-01T00:43:56;99541.84;;;16.79;100.00
70015;BME280;57358;51.094;6.760;2023-08-01T00:46:24;99524.13;;;16.79;100.00
70015;BME280;57358;51.094;6.760;2023-08-01T00:48:50;99445.63;;;16.32;100.00
70015;BME280;57358;51.094;6.760;2023-08-01T00:51:17;99493.72;;;16.55;100.00
70015;BME280;57358;51.094;6.760;2023-08-01T00:53:45;99463.31;;;16.42;100.00
70015;BME280;57358;51.094;6.760;2023-08-01T00:56:12;99479.50;;;16.57;100.00
70015;BME280;57358;51.094;6.760;2023-08-01T00:58:39;99526.63;;;16.81;100.00
70015;BME280;57358;51.094;6.760;2023-08-01T01:01:05;99488.00;;;16.60;100.00
70015;BME280;57358;51.094;6.760;2023-08-01T01:03:32;99516.13;;;16.61;100.00
70015;BME280;57358;51.094;6.760;2023-08-01T01:06:13;99491.84;;;16.48;100.00
70015;BME280;57358;51.094;6.760;2023-08-01T01:08:44;99556.81;;;16.98;100.00
70015;BME280;57358;51.094;6.760;2023-08-01T01:11:11;99501.63;;;16.65;100.00
70015;BME280;57358;51.094;6.760;2023-08-01T01:13:37;99492.97;;;16.63;100.00
70015;BME280;57358;51.094;6.760;2023-08-01T01:16:03;99535.91;;;16.94;100.00
70015;BME280;57358;51.094;6.760;2023-08-01T01:18:30;99535.28;;;16.83;100.00
70015;BME280;57358;51.094;6.760;2023-08-01T01:20:56;99488.38;;;16.65;100.00
70015;BME280;57358;51.094;6.760;2023-08-01T01:23:24;99482.53;;;16.62;100.00
70015;BME280;57358;51.094;6.760;2023-08-01T01:25:51;99510.88;;;16.79;100.00
70015;BME280;57358;51.094;6.760;2023-08-01T01:28:20;99454.63;;;16.40;100.00
70015;BME280;57358;51.094;6.760;2023-08-01T01:30:48;99487.59;;;16.55;100.00
70015;BME280;57358;51.094;6.760;2023-08-01T01:33:15;99521.34;;;16.81;100.00
70015;BME280;57358;51.094;6.760;2023-08-01T01:35:42;99519.47;;;16.63;100.00
70015;BME280;57358;51.094;6.760;2023-08-01T01:38:08;99516.63;;;16.74;100.00
70015;BME280;57358;51.094;6.760;2023-08-01T01:40:35;99357.72;;;15.83;100.00
70015;BME280;57358;51.094;6.760;2023-08-01T01:43:01;99469.22;;;16.71;100.00
70015;BME280;57358;51.094;6.760;2023-08-01T01:45:28;99447.69;;;16.39;100.00
70015;BME280;57358;51.094;6.760;2023-08-01T01:47:57;99477.91;;;16.46;100.00
70015;BME280;57358;51.094;6.760;2023-08-01T01:50:23;99446.81;;;16.20;100.00
70015;BME280;57358;51.094;6.760;2023-08-01T01:52:52;99472.13;;;16.32;100.00
70015;BME280;57358;51.094;6.760;2023-08-01T01:55:18;99512.53;;;16.62;100.00
70015;BME280;57358;51.094;6.760;2023-08-01T01:57:45;99487.97;;;16.42;100.00
70015;BME280;57358;51.094;6.760;2023-08-01T02:00:12;99506.50;;;16.70;100.00
70015;BME280;57358;51.094;6.760;2023-08-01T02:02:39;99478.34;;;16.41;100.00
70015;BME280;57358;51.094;6.760;2023-08-01T02:05:05;99483.81;;;16.58;100.00
70015;BME280;57358;51.094;6.760;2023-08-01T02:07:32;99495.63;;;16.63;100.00
70015;BME280;57358;51.094;6.760;2023-08-01T02:10:00;99481.84;;;16.60;100.00
70015;BME280;57358;51.094;6.760;2023-08-01T02:12:27;99473.31;;;16.48;100.00
70015;BME280;57358;51.094;6.760;2023-08-01T02:14:54;99488.59;;;16.54;100.00
70015;BME280;57358;51.094;6.760;2023-08-01T02:17:20;99404.75;;;15.89;100.00
70015;BME280;57358;51.094;6.760;2023-08-01T02:19:47;99491.53;;;16.51;100.00
70015;BME280;57358;51.094;6.760;2023-08-01T02:22:13;99352.91;;;15.59;100.00
70015;BME280;57358;51.094;6.760;2023-08-01T02:24:39;99491.16;;;16.46;100.00
70015;BME280;57358;51.094;6.760;2023-08-01T02:27:06;99485.31;;;16.42;100.00
70015;BME280;57358;51.094;6.760;2023-08-01T02:29:32;99398.75;;;15.87;100.00
70015;BME280;57358;51.094;6.760;2023-08-01T02:31:59;99418.38;;;15.94;100.00
70015;BME280;57358;51.094;6.760;2023-08-01T02:34:25;99067.88;;;13.77;100.00
70015;BME280;57358;51.094;6.760;2023-08-01T02:36:52;99491.72;;;16.40;100.00
70015;BME280;57358;51.094;6.760;2023-08-01T02:39:19;99403.13;;;15.79;100.00
70015;BME280;57358;51.094;6.760;2023-08-01T02:41:45;99499.28;;;16.34;100.00
70015;BME280;57358;51.094;6.760;2023-08-01T02:44:12;99497.59;;;16.33;100.00
70015;BME280;57358;51.094;6.760;2023-08-01T02:46:39;99494.81;;;16.35;100.00
70015;BME280;57358;51.094;6.760;2023-08-01T02:49:06;99503.75;;;16.34;100.00
70015;BME280;57358;51.094;6.760;2023-08-01T02:51:32;99501.25;;;16.32;100.00
70015;BME280;57358;51.094;6.760;2023-08-01T02:53:58;99470.97;;;16.07;100.00
70015;BME280;57358;51.094;6.760;2023-08-01T02:56:25;99477.22;;;16.16;100.00
70015;BME280;57358;51.094;6.760;2023-08-01T02:58:53;99484.34;;;16.33;100.00
70015;BME280;57358;51.094;6.760;2023-08-01T03:01:21;99473.53;;;16.27;100.00
70015;BME280;57358;51.094;6.760;2023-08-01T03:03:48;99445.09;;;16.01;100.00
70015;BME280;57358;51.094;6.760;2023-08-01T03:06:14;99349.50;;;15.39;100.00
70015;BME280;57358;51.094;6.760;2023-08-01T03:08:42;99468.19;;;16.09;100.00
70015;BME280;57358;51.094;6.760;2023-08-01T03:11:08;99467.50;;;16.07;100.00
70015;BME280;57358;51.094;6.760;2023-08-01T03:13:35;99489.38;;;15.99;100.00
70015;BME280;57358;51.094;6.760;2023-08-01T03:16:01;99485.88;;;16.08;100.00
70015;BME280;57358;51.094;6.760;2023-08-01T03:18:29;99478.38;;;16.04;100.00
70015;BME280;57358;51.094;6.760;2023-08-01T03:20:55;99448.09;;;15.69;100.00
70015;BME280;57358;51.094;6.760;2023-08-01T03:23:21;99471.03;;;15.98;100.00
70015;BME280;57358;51.094;6.760;2023-08-01T03:25:48;99483.84;;;15.92;100.00
70015;BME280;57358;51.094;6.760;2023-08-01T03:28:14;99495.56;;;15.80;100.00
70015;BME280;57358;51.094;6.760;2023-08-01T03:30:41;99427.72;;;15.42;100.00
70015;BME280;57358;51.094;6.760;2023-08-01T03:33:10;99495.97;;;15.85;100.00
70015;BME280;57358;51.094;6.760;2023-08-01T03:35:36;99339.06;;;14.90;100.00
70015;BME280;57358;51.094;6.760;2023-08-01T03:38:03;99449.38;;;15.55;100.00
70015;BME280;57358;51.094;6.760;2023-08-01T03:40:29;99474.44;;;15.51;100.00
70015;BME280;57358;51.094;6.760;2023-08-01T03:42:55;99503.78;;;15.67;100.00
70015;BME280;57358;51.094;6.760;2023-08-01T03:45:22;99454.16;;;15.32;100.00
70015;BME280;57358;51.094;6.760;2023-08-01T03:47:48;99509.63;;;15.51;100.00
70015;BME280;57358;51.094;6.760;2023-08-01T03:50:15;99439.56;;;14.99;100.00
70015;BME280;57358;51.094;6.760;2023-08-01T03:52:41;99506.16;;;15.31;100.00
70015;BME280;57358;51.094;6.760;2023-08-01T03:55:08;99408.84;;;14.59;100.00
70015;BME280;57358;51.094;6.760;2023-08-01T03:57:35;99515.91;;;15.21;100.00
70015;BME280;57358;51.094;6.760;2023-08-01T04:00:01;99515.66;;;15.14;100.00
70015;BME280;57358;51.094;6.760;2023-08-01T04:02:29;99520.38;;;15.11;100.00
70015;BME280;57358;51.094;6.760;2023-08-01T04:04:55;99480.84;;;14.80;100.00
70015;BME280;57358;51.094;6.760;2023-08-01T04:07:22;99479.44;;;14.66;100.00
70015;BME280;57358;51.094;6.760;2023-08-01T04:09:48;99478.19;;;14.70;100.00
70015;BME280;57358;51.094;6.760;2023-08-01T04:12:14;99439.34;;;14.42;100.00
70015;BME280;57358;51.094;6.760;2023-08-01T04:14:41;99453.25;;;14.44;100.00
70015;BME280;57358;51.094;6.760;2023-08-01T04:17:08;99475.94;;;14.56;100.00
70015;BME280;57358;51.094;6.760;2023-08-01T04:19:34;99466.56;;;14.42;100.00
70015;BME280;57358;51.094;6.760;2023-08-01T04:22:01;99546.47;;;14.85;100.00
70015;BME280;57358;51.094;6.760;2023-08-01T04:24:27;99542.88;;;14.86;100.00
70015;BME280;57358;51.094;6.760;2023-08-01T04:26:55;99377.66;;;13.83;100.00
70015;BME280;57358;51.094;6.760;2023-08-01T04:29:22;99532.56;;;14.83;100.00
70015;BME280;57358;51.094;6.760;2023-08-01T04:31:48;99510.88;;;14.69;100.00
70015;BME280;57358;51.094;6.760;2023-08-01T04:34:15;99499.16;;;14.62;100.00
70015;BME280;57358;51.094;6.760;2023-08-01T04:36:41;99434.09;;;14.11;100.00
70015;BME280;57358;51.094;6.760;2023-08-01T04:39:08;99507.25;;;14.70;100.00
70015;BME280;57358;51.094;6.760;2023-08-01T04:41:35;99497.25;;;14.74;100.00
70015;BME280;57358;51.094;6.760;2023-08-01T04:44:01;99482.34;;;14.63;100.00
70015;BME280;57358;51.094;6.760;2023-08-01T04:46:27;99527.75;;;14.98;100.00
70015;BME280;57358;51.094;6.760;2023-08-01T04:48:54;99496.03;;;14.88;100.00
70015;BME280;57358;51.094;6.760;2023-08-01T04:51:20;99506.31;;;14.91;100.00
70015;BME280;57358;51.094;6.760;2023-08-01T04:53:47;99532.91;;;15.19;100.00
70015;BME280;57358;51.094;6.760;2023-08-01T04:56:13;99530.13;;;15.20;100.00
70015;BME280;57358;51.094;6.760;2023-08-01T04:58:39;99464.44;;;14.76;100.00
70015;BME280;57358;51.094;6.760;2023-08-01T05:01:06;99481.84;;;14.89;100.00
70015;BME280;57358;51.094;6.760;2023-08-01T05:03:32;99476.97;;;14.84;100.00
70015;BME280;57358;51.094;6.760;2023-08-01T05:05:59;99522.75;;;15.14;100.00
70015;BME280;57358;51.094;6.760;2023-08-01T05:08:26;99521.19;;;15.21;100.00
70015;BME280;57358;51.094;6.760;2023-08-01T05:10:52;99342.06;;;14.08;100.00
70015;BME280;57358;51.094;6.760;2023-08-01T05:13:19;99477.13;;;14.92;100.00
70015;BME280;57358;51.094;6.760;2023-08-01T05:15:45;99498.97;;;15.04;100.00
70015;BME280;57358;51.094;6.760;2023-08-01T05:18:15;99521.38;;;15.20;100.00
70015;BME280;57358;51.094;6.760;2023-08-01T05:20:42;99462.53;;;14.98;100.00
70015;BME280;57358;51.094;6.760;2023-08-01T05:23:08;99462.53;;;15.18;100.00
70015;BME280;57358;51.094;6.760;2023-08-01T05:25:35;99475.94;;;15.63;100.00
70015;BME280;57358;51.094;6.760;2023-08-01T05:28:01;99509.44;;;16.02;100.00
70015;BME280;57358;51.094;6.760;2023-08-01T05:30:28;99497.19;;;16.01;100.00
70015;BME280;57358;51.094;6.760;2023-08-01T05:32:54;99449.91;;;15.68;100.00
70015;BME280;57358;51.094;6.760;2023-08-01T05:35:21;99457.72;;;15.70;100.00
70015;BME280;57358;51.094;6.760;2023-08-01T05:37:48;99437.00;;;15.55;100.00
70015;BME280;57358;51.094;6.760;2023-08-01T05:40:14;99463.56;;;15.64;100.00
70015;BME280;57358;51.094;6.760;2023-08-01T05:42:40;99489.03;;;15.74;100.00
70015;BME280;57358;51.094;6.760;2023-08-01T05:45:07;99500.72;;;15.82;100.00
70015;BME280;57358;51.094;6.760;2023-08-01T05:47:34;99502.53;;;15.81;100.00
70015;BME280;57358;51.094;6.760;2023-08-01T05:50:03;99491.56;;;15.76;100.00
70015;BME280;57358;51.094;6.760;2023-08-01T05:52:29;99507.81;;;15.81;100.00
70015;BME280;57358;51.094;6.760;2023-08-01T05:54:56;99444.78;;;15.47;100.00
70015;BME280;57358;51.094;6.760;2023-08-01T05:57:22;99505.16;;;15.81;100.00
70015;BME280;57358;51.094;6.760;2023-08-01T05:59:51;99508.09;;;15.88;100.00
70015;BME280;57358;51.094;6.760;2023-08-01T06:02:20;99433.94;;;15.50;100.00
70015;BME280;57358;51.094;6.760;2023-08-01T06:04:46;99448.81;;;15.61;100.00
70015;BME280;57358;51.094;6.760;2023-08-01T06:07:12;99495.34;;;16.01;100.00
70015;BME280;57358;51.094;6.760;2023-08-01T06:09:39;99486.44;;;16.12;100.00
70015;BME280;57358;51.094;6.760;2023-08-01T06:12:06;99486.22;;;16.23;100.00
70015;BME280;57358;51.094;6.760;2023-08-01T06:14:32;99474.44;;;16.35;100.00
70015;BME280;57358;51.094;6.760;2023-08-01T06:16:59;99479.75;;;16.63;100.00
70015;BME280;57358;51.094;6.760;2023-08-01T06:19:25;99418.50;;;16.48;100.00
70015;BME280;57358;51.094;6.760;2023-08-01T06:21:51;99411.41;;;16.67;100.00
70015;BME280;57358;51.094;6.760;2023-08-01T06:24:18;99421.56;;;16.89;100.00
70015;BME280;57358;51.094;6.760;2023-08-01T06:26:45;99411.34;;;17.12;100.00
70015;BME280;57358;51.094;6.760;2023-08-01T06:29:11;99373.22;;;17.13;100.00
70015;BME280;57358;51.094;6.760;2023-08-01T06:31:37;99382.72;;;17.42;100.00
70015;BME280;57358;51.094;6.760;2023-08-01T06:34:04;99384.16;;;17.63;100.00
70015;BME280;57358;51.094;6.760;2023-08-01T06:36:30;99362.41;;;17.59;100.00
70015;BME280;57358;51.094;6.760;2023-08-01T06:38:58;99356.19;;;17.77;100.00
70015;BME280;57358;51.094;6.760;2023-08-01T06:41:25;99290.81;;;17.67;100.00
70015;BME280;57358;51.094;6.760;2023-08-01T06:43:51;99314.63;;;17.85;100.00
70015;BME280;57358;51.094;6.760;2023-08-01T06:46:17;99328.72;;;17.94;100.00
70015;BME280;57358;51.094;6.760;2023-08-01T06:48:44;99136.53;;;16.87;100.00
70015;BME280;57358;51.094;6.760;2023-08-01T06:51:10;99261.19;;;17.80;100.00
70015;BME280;57358;51.094;6.760;2023-08-01T06:53:37;99318.56;;;18.40;100.00
70015;BME280;57358;51.094;6.760;2023-08-01T06:56:04;99315.56;;;18.76;100.00
70015;BME280;57358;51.094;6.760;2023-08-01T06:58:30;99259.59;;;18.86;99.24
70015;BME280;57358;51.094;6.760;2023-08-01T07:00:57;99203.19;;;18.34;96.97
70015;BME280;57358;51.094;6.760;2023-08-01T07:03:23;99257.63;;;18.22;100.00
70015;BME280;57358;51.094;6.760;2023-08-01T07:05:50;99256.97;;;18.20;100.00
70015;BME280;57358;51.094;6.760;2023-08-01T07:08:18;99234.03;;;18.44;98.15
70015;BME280;57358;51.094;6.760;2023-08-01T07:10:45;99213.81;;;18.43;97.59
70015;BME280;57358;51.094;6.760;2023-08-01T07:13:11;99238.69;;;18.91;96.29
70015;BME280;57358;51.094;6.760;2023-08-01T07:15:38;99197.09;;;19.06;93.29
70015;BME280;57358;51.094;6.760;2023-08-01T07:18:04;99208.16;;;19.58;92.30
70015;BME280;57358;51.094;6.760;2023-08-01T07:20:31;99121.25;;;19.19;89.35
70015;BME280;57358;51.094;6.760;2023-08-01T07:22:57;99145.00;;;19.51;88.17
70015;BME280;57358;51.094;6.760;2023-08-01T07:25:24;99110.84;;;19.09;88.43
70015;BME280;57358;51.094;6.760;2023-08-01T07:27:51;99094.84;;;18.69;89.03
70015;BME280;57358;51.094;6.760;2023-08-01T07:30:18;99148.03;;;18.61;91.17
70015;BME280;57358;51.094;6.760;2023-08-01T07:32:44;99179.91;;;18.61;92.46
70015;BME280;57358;51.094;6.760;2023-08-01T07:35:11;99155.88;;;18.22;92.26
70015;BME280;57358;51.094;6.760;2023-08-01T07:37:37;99178.13;;;18.21;93.29
70015;BME280;57358;51.094;6.760;2023-08-01T07:40:07;99186.25;;;18.19;93.32
70015;BME280;57358;51.094;6.760;2023-08-01T07:42:33;99120.03;;;17.68;93.41
70015;BME280;57358;51.094;6.760;2023-08-01T07:45:00;99200.19;;;18.21;93.66
70015;BME280;57358;51.094;6.760;2023-08-01T07:47:26;99186.56;;;18.08;95.26
70015;BME280;57358;51.094;6.760;2023-08-01T07:49:53;99141.13;;;18.19;92.77
70015;BME280;57358;51.094;6.760;2023-08-01T07:52:19;99050.53;;;17.81;92.09
70015;BME280;57358;51.094;6.760;2023-08-01T07:54:45;99120.28;;;18.56;91.02
70015;BME280;57358;51.094;6.760;2023-08-01T07:57:14;99137.34;;;18.86;88.64
70015;BME280;57358;51.094;6.760;2023-08-01T07:59:41;99146.97;;;18.79;88.85
70015;BME280;57358;51.094;6.760;2023-08-01T08:02:08;99091.75;;;18.49;88.42
70015;BME280;57358;51.094;6.760;2023-08-01T08:04:34;99150.16;;;18.66;89.16
70015;BME280;57358;51.094;6.760;2023-08-01T08:07:01;99110.22;;;18.43;89.20
70015;BME280;57358;51.094;6.760;2023-08-01T08:09:27;99148.69;;;18.63;89.04
70015;BME280;57358;51.094;6.760;2023-08-01T08:11:53;99160.78;;;18.66;89.30
70015;BME280;57358;51.094;6.760;2023-08-01T08:14:20;99168.47;;;18.52;89.87
70015;BME280;57358;51.094;6.760;2023-08-01T08:16:47;99138.44;;;18.27;90.59
70015;BME280;57358;51.094;6.760;2023-08-01T08:19:14;99170.06;;;18.78;89.50
70015;BME280;57358;51.094;6.760;2023-08-01T08:21:41;99109.63;;;18.80;87.22
70015;BME280;57358;51.094;6.760;2023-08-01T08:24:07;99066.41;;;18.78;85.40
70015;BME280;57358;51.094;6.760;2023-08-01T08:26:34;99067.94;;;18.72;85.29
70015;BME280;57358;51.094;6.760;2023-08-01T08:29:04;99080.56;;;18.14;87.81
70015;BME280;57358;51.094;6.760;2023-08-01T08:31:31;99149.03;;;18.44;89.20
70015;BME280;57358;51.094;6.760;2023-08-01T08:33:57;99142.56;;;18.54;87.79
70015;BME280;57358;51.094;6.760;2023-08-01T08:36:24;99103.88;;;18.60;86.60
70015;BME280;57358;51.094;6.760;2023-08-01T08:38:50;99117.84;;;19.33;84.96
70015;BME280;57358;51.094;6.760;2023-08-01T08:41:20;99098.81;;;19.90;82.09
70015;BME280;57358;51.094;6.760;2023-08-01T08:43:48;99069.47;;;19.99;80.74
70015;BME280;57358;51.094;6.760;2023-08-01T08:46:16;99014.50;;;20.21;77.82
70015;BME280;57358;51.094;6.760;2023-08-01T08:48:42;99008.88;;;20.01;77.80
70015;BME280;57358;51.094;6.760;2023-08-01T08:51:12;98978.66;;;19.79;77.31
70015;BME280;57358;51.094;6.760;2023-08-01T08:53:40;98904.00;;;18.96;78.26
70015;BME280;57358;51.094;6.760;2023-08-01T08:56:08;99029.53;;;19.38;79.07
70015;BME280;57358;51.094;6.760;2023-08-01T08:58:36;99019.19;;;19.43;79.27
70015;BME280;57358;51.094;6.760;2023-08-01T09:01:05;99032.13;;;19.46;78.98
70015;BME280;57358;51.094;6.760;2023-08-01T09:03:33;98976.81;;;19.56;76.44
70015;BME280;57358;51.094;6.760;2023-08-01T09:06:30;99003.41;;;19.41;77.60
70015;BME280;57358;51.094;6.760;2023-08-01T09:09:09;98992.03;;;19.24;78.10
70015;BME280;57358;51.094;6.760;2023-08-01T09:11:42;99067.97;;;19.96;77.71
70015;BME280;57358;51.094;6.760;2023-08-01T09:14:10;99010.72;;;20.15;76.32
70015;BME280;57358;51.094;6.760;2023-08-01T09:16:37;98956.84;;;20.64;72.18
70015;BME280;57358;51.094;6.760;2023-08-01T09:19:06;99019.06;;;21.29;72.26
70015;BME280;57358;51.094;6.760;2023-08-01T09:21:33;98860.06;;;20.27;70.91
70015;BME280;57358;51.094;6.760;2023-08-01T09:24:11;99016.84;;;20.75;72.75
70015;BME280;57358;51.094;6.760;2023-08-01T09:26:39;99025.19;;;20.87;73.03
70015;BME280;57358;51.094;6.760;2023-08-01T09:29:06;99014.72;;;21.43;71.72
70015;BME280;57358;51.094;6.760;2023-08-01T09:31:35;98905.16;;;21.30;68.57
70015;BME280;57358;51.094;6.760;2023-08-01T09:34:03;98705.88;;;20.61;66.02
70015;BME280;57358;51.094;6.760;2023-08-01T09:36:33;98863.75;;;21.41;66.66
70015;BME280;57358;51.094;6.760;2023-08-01T09:39:02;98837.25;;;21.04;66.81
70015;BME280;57358;51.094;6.760;2023-08-01T09:41:30;98880.03;;;20.96;67.93
70015;BME280;57358;51.094;6.760;2023-08-01T09:43:57;98939.34;;;21.20;69.39
70015;BME280;57358;51.094;6.760;2023-08-01T09:46:24;98917.19;;;21.19;68.41
70015;BME280;57358;51.094;6.760;2023-08-01T09:48:51;98868.00;;;20.79;67.96
70015;BME280;57358;51.094;6.760;2023-08-01T09:51:18;98860.66;;;20.59;69.11
70015;BME280;57358;51.094;6.760;2023-08-01T09:53:52;98976.28;;;21.66;68.56
70015;BME280;57358;51.094;6.760;2023-08-01T09:56:24;98933.81;;;22.06;65.99
70015;BME280;57358;51.094;6.760;2023-08-01T09:58:52;98914.50;;;22.04;65.62
70015;BME280;57358;51.094;6.760;2023-08-01T10:01:21;98925.75;;;22.41;65.19
70015;BME280;57358;51.094;6.760;2023-08-01T10:03:50;98833.84;;;21.80;64.17
70015;BME280;57358;51.094;6.760;2023-08-01T10:06:19;98860.19;;;21.90;63.94
70015;BME280;57358;51.094;6.760;2023-08-01T10:11:17;98844.16;;;21.97;63.17
70015;BME280;57358;51.094;6.760;2023-08-01T10:13:44;98855.16;;;22.15;62.85
70015;BME280;57358;51.094;6.760;2023-08-01T10:16:12;98744.78;;;21.18;62.79
70015;BME280;57358;51.094;6.760;2023-08-01T10:18:40;98830.34;;;21.80;62.79
70015;BME280;57358;51.094;6.760;2023-08-01T10:21:08;98848.66;;;21.48;63.76
70015;BME280;57358;51.094;6.760;2023-08-01T10:23:36;98807.97;;;21.11;64.14
70015;BME280;57358;51.094;6.760;2023-08-01T10:26:05;98905.44;;;21.14;65.12
70015;BME280;57358;51.094;6.760;2023-08-01T10:28:48;98980.19;;;21.63;66.30
70015;BME280;57358;51.094;6.760;2023-08-01T10:31:17;98947.84;;;21.80;65.21
70015;BME280;57358;51.094;6.760;2023-08-01T10:33:47;98997.16;;;22.19;64.87
70015;BME280;57358;51.094;6.760;2023-08-01T10:36:21;98936.31;;;22.56;63.11
70015;BME280;57358;51.094;6.760;2023-08-01T10:38:54;98927.06;;;22.65;62.31
70015;BME280;57358;51.094;6.760;2023-08-01T10:44:11;98862.47;;;22.00;62.24
70015;BME280;57358;51.094;6.760;2023-08-01T10:47:05;98856.44;;;21.84;62.19
70015;BME280;57358;51.094;6.760;2023-08-01T10:49:39;98952.94;;;22.09;63.96
70015;BME280;57358;51.094;6.760;2023-08-01T10:52:26;98904.75;;;22.31;61.39
70015;BME280;57358;51.094;6.760;2023-08-01T10:55:00;98985.78;;;22.93;61.74
70015;BME280;57358;51.094;6.760;2023-08-01T10:57:27;98861.25;;;22.70;59.30
70015;BME280;57358;51.094;6.760;2023-08-01T10:59:55;98852.34;;;22.37;59.88
70015;BME280;57358;51.094;6.760;2023-08-01T11:02:24;98915.38;;;22.18;61.01
70015;BME280;57358;51.094;6.760;2023-08-01T11:05:11;98892.03;;;21.57;62.32
70015;BME280;57358;51.094;6.760;2023-08-01T11:07:37;98996.75;;;22.15;62.75
70015;BME280;57358;51.094;6.760;2023-08-01T11:12:42;98948.59;;;23.58;58.19
70015;BME280;57358;51.094;6.760;2023-08-01T11:15:10;98874.47;;;23.45;57.34
70015;BME280;57358;51.094;6.760;2023-08-01T11:17:41;98857.13;;;23.61;55.62
70015;BME280;57358;51.094;6.760;2023-08-01T11:20:10;98853.41;;;23.62;55.17
70015;BME280;57358;51.094;6.760;2023-08-01T11:22:48;98947.94;;;23.96;56.24
70015;BME280;57358;51.094;6.760;2023-08-01T11:25:15;98868.63;;;23.75;54.72
70015;BME280;57358;51.094;6.760;2023-08-01T11:27:41;98983.16;;;24.13;55.43
70015;BME280;57358;51.094;6.760;2023-08-01T11:30:08;98911.44;;;24.08;53.82
70015;BME280;57358;51.094;6.760;2023-08-01T11:32:36;98916.47;;;23.52;53.81
70015;BME280;57358;51.094;6.760;2023-08-01T11:35:03;98994.34;;;23.43;55.28
70015;BME280;57358;51.094;6.760;2023-08-01T11:37:30;98899.34;;;22.93;55.06
70015;BME280;57358;51.094;6.760;2023-08-01T11:39:58;99018.84;;;22.30;56.81
70015;BME280;57358;51.094;6.760;2023-08-01T11:42:30;99042.63;;;21.26;59.08
70015;BME280;57358;51.094;6.760;2023-08-01T11:45:09;99111.81;;;20.76;62.19
70015;BME280;57358;51.094;6.760;2023-08-01T11:47:36;99182.34;;;20.36;64.57
70015;BME280;57358;51.094;6.760;2023-08-01T11:50:03;99207.44;;;20.41;65.69
70015;BME280;57358;51.094;6.760;2023-08-01T11:52:30;99236.22;;;20.23;66.91
70015;BME280;57358;51.094;6.760;2023-08-01T11:54:57;99242.06;;;20.18;67.76
70015;BME280;57358;51.094;6.760;2023-08-01T11:57:24;99269.47;;;19.81;69.47
70015;BME280;57358;51.094;6.760;2023-08-01T11:59:52;99307.06;;;19.69;71.56
70015;BME280;57358;51.094;6.760;2023-08-01T12:02:23;99347.63;;;20.19;73.35
70015;BME280;57358;51.094;6.760;2023-08-01T12:04:50;99323.56;;;20.82;71.56
70015;BME280;57358;51.094;6.760;2023-08-01T12:07:17;99244.75;;;20.56;68.79
70015;BME280;57358;51.094;6.760;2023-08-01T12:09:46;99273.06;;;20.65;70.07
70015;BME280;57358;51.094;6.760;2023-08-01T12:12:20;99218.41;;;20.00;69.83
70015;BME280;57358;51.094;6.760;2023-08-01T12:14:47;99259.53;;;20.44;69.32
70015;BME280;57358;51.094;6.760;2023-08-01T12:17:13;99280.72;;;20.83;68.82
70015;BME280;57358;51.094;6.760;2023-08-01T12:19:40;99253.50;;;20.88;68.56
70015;BME280;57358;51.094;6.760;2023-08-01T12:22:06;99287.50;;;20.71;70.60
70015;BME280;57358;51.094;6.760;2023-08-01T12:24:33;99376.50;;;20.39;75.03
70015;BME280;57358;51.094;6.760;2023-08-01T12:27:00;99351.09;;;19.88;76.78
70015;BME280;57358;51.094;6.760;2023-08-01T12:29:26;99428.53;;;19.54;82.77
70015;BME280;57358;51.094;6.760;2023-08-01T12:31:53;99458.28;;;19.66;85.47
70015;BME280;57358;51.094;6.760;2023-08-01T12:34:19;99391.19;;;19.31;86.56
70015;BME280;57358;51.094;6.760;2023-08-01T12:36:46;99431.00;;;19.80;85.24
70015;BME280;57358;51.094;6.760;2023-08-01T12:39:12;99380.44;;;19.80;82.80
70015;BME280;57358;51.094;6.760;2023-08-01T12:41:39;99437.59;;;20.09;81.97
70015;BME280;57358;51.094;6.760;2023-08-01T12:44:05;99384.59;;;19.83;81.07
70015;BME280;57358;51.094;6.760;2023-08-01T12:46:32;99416.13;;;20.02;81.84
70015;BME280;57358;51.094;6.760;2023-08-01T12:48:58;99387.03;;;20.01;80.10
70015;BME280;57358;51.094;6.760;2023-08-01T12:51:25;99415.09;;;20.11;80.80
70015;BME280;57358;51.094;6.760;2023-08-01T12:53:51;99428.56;;;20.10;80.86
70015;BME280;57358;51.094;6.760;2023-08-01T12:56:18;99454.25;;;20.03;82.18
70015;BME280;57358;51.094;6.760;2023-08-01T12:58:44;99426.72;;;19.63;84.50
70015;BME280;57358;51.094;6.760;2023-08-01T13:01:11;99523.63;;;20.09;87.03
70015;BME280;57358;51.094;6.760;2023-08-01T13:03:37;99510.19;;;19.86;87.77
70015;BME280;57358;51.094;6.760;2023-08-01T13:06:04;99459.47;;;19.80;86.82